Time;durP1;ratioP1;P1;durP2;ratioP2;P2;SDS_P1;SDS_P2;PMS_P1;PMS_P2;Temp;Humidity;BMP_temperature;BMP_pressure;BME280_temperature;BME280_humidity;BME280_pressure;Samples;Min_cycle;Max_cycle;Signal;HPM_P1;HPM_P2
2021/09/04 00:01:50;;;;;;;13.27;8.73;;;16.20;99.80;;;;;;6116269;23;20448;-84
2021/09/04 00:04:20;;;;;;;13.10;8.00;;;16.20;99.80;;;;;;6177249;23;20434;-85
2021/09/04 00:06:48;;;;;;;10.93;8.33;;;16.20;99.80;;;;;;6184075;23;20510;-83
2021/09/04 00:09:16;;;;;;;14.67;8.90;;;16.20;99.80;;;;;;6172187;23;20440;-84
2021/09/04 00:11:44;;;;;;;12.43;8.13;;;16.20;99.80;;;;;;6179636;23;20446;-84
2021/09/04 00:14:12;;;;;;;15.70;8.20;;;16.20;99.80;;;;;;6166805;23;20843;-84
2021/09/04 00:16:41;;;;;;;12.83;9.17;;;16.20;99.80;;;;;;6162243;23;20696;-84
2021/09/04 00:19:09;;;;;;;11.83;8.87;;;16.20;99.80;;;;;;6176650;23;20747;-85
2021/09/04 00:21:39;;;;;;;14.27;9.07;;;16.20;99.80;;;;;;6165627;23;20507;-86
2021/09/04 00:24:07;;;;;;;12.07;8.27;;;16.10;99.80;;;;;;6128261;23;20785;-85
2021/09/04 00:26:35;;;;;;;12.23;9.10;;;16.10;99.80;;;;;;6164069;23;20474;-86
2021/09/04 00:29:04;;;;;;;12.43;8.90;;;16.10;99.80;;;;;;6140263;23;20792;-84
2021/09/04 00:31:32;;;;;;;10.50;7.90;;;16.10;99.80;;;;;;6137040;23;20445;-84
2021/09/04 00:34:00;;;;;;;13.73;9.27;;;16.10;99.80;;;;;;6165667;23;20511;-85
2021/09/04 00:36:28;;;;;;;12.67;9.03;;;16.10;99.80;;;;;;6160818;23;20455;-84
2021/09/04 00:39:00;;;;;;;14.90;9.00;;;16.10;99.80;;;;;;6165919;23;20436;-85
2021/09/04 00:41:28;;;;;;;10.63;8.43;;;16.10;99.80;;;;;;6176976;23;20466;-85
2021/09/04 00:43:57;;;;;;;11.83;9.27;;;16.10;99.80;;;;;;6169247;23;20442;-85
2021/09/04 00:46:24;;;;;;;11.33;8.30;;;16.10;99.80;;;;;;6130838;23;20823;-86
2021/09/04 00:48:53;;;;;;;13.70;8.63;;;16.10;99.80;;;;;;6168118;23;20436;-85
2021/09/04 00:51:22;;;;;;;12.47;8.50;;;16.10;99.80;;;;;;6175442;23;20435;-84
2021/09/04 00:53:51;;;;;;;14.10;8.63;;;16.10;99.80;;;;;;6172953;23;20519;-85
2021/09/04 00:56:21;;;;;;;10.67;7.87;;;16.10;99.80;;;;;;6164437;23;20522;-84
2021/09/04 00:58:49;;;;;;;11.30;8.77;;;16.20;99.80;;;;;;6158208;23;20455;-84
2021/09/04 01:01:17;;;;;;;10.50;8.57;;;16.10;99.80;;;;;;6117736;23;20475;-86
2021/09/04 01:03:46;;;;;;;13.07;9.10;;;16.10;99.80;;;;;;6161761;23;20443;-86
2021/09/04 01:06:16;;;;;;;10.67;8.33;;;16.20;99.80;;;;;;6173491;23;20440;-86
2021/09/04 01:08:44;;;;;;;10.33;7.97;;;16.10;99.80;;;;;;6167068;23;20440;-86
2021/09/04 01:11:12;;;;;;;12.53;9.00;;;16.20;99.80;;;;;;6157409;23;20439;-86
2021/09/04 01:13:42;;;;;;;11.40;9.50;;;16.20;99.80;;;;;;6170604;23;20430;-85
2021/09/04 01:16:10;;;;;;;9.73;8.20;;;16.20;99.80;;;;;;6171653;23;20973;-86
2021/09/04 01:18:38;;;;;;;14.37;9.10;;;16.20;99.80;;;;;;6169184;23;20439;-86
2021/09/04 01:21:08;;;;;;;12.67;8.93;;;16.20;99.80;;;;;;6180472;23;20959;-84
2021/09/04 01:23:37;;;;;;;10.23;7.80;;;16.30;99.80;;;;;;6177280;23;20439;-85
2021/09/04 01:26:07;;;;;;;14.60;9.37;;;16.20;99.80;;;;;;6157734;23;20442;-86
2021/09/04 01:28:35;;;;;;;14.23;9.20;;;16.20;99.80;;;;;;6152119;23;20440;-86
2021/09/04 01:31:04;;;;;;;12.00;8.90;;;16.20;99.80;;;;;;6165570;23;20450;-86
2021/09/04 01:33:32;;;;;;;12.47;8.77;;;16.10;99.80;;;;;;6175680;23;20841;-86
2021/09/04 01:36:00;;;;;;;13.83;8.30;;;16.10;99.80;;;;;;6178255;23;20430;-86
2021/09/04 01:38:28;;;;;;;11.93;8.90;;;16.10;99.80;;;;;;6165885;23;20533;-85
2021/09/04 01:40:56;;;;;;;12.87;8.63;;;16.10;99.80;;;;;;6172890;23;20435;-85
2021/09/04 01:43:26;;;;;;;12.13;8.50;;;16.10;99.80;;;;;;6175350;23;20847;-85
2021/09/04 01:45:55;;;;;;;12.90;8.90;;;16.10;99.80;;;;;;6161166;23;20439;-84
2021/09/04 01:48:23;;;;;;;13.77;9.47;;;16.10;99.80;;;;;;6176689;23;20521;-84
2021/09/04 01:50:51;;;;;;;10.63;7.97;;;16.10;99.80;;;;;;6179653;23;20952;-84
2021/09/04 01:53:19;;;;;;;12.00;8.60;;;16.10;99.80;;;;;;6178845;23;20971;-84
2021/09/04 01:55:47;;;;;;;14.90;9.70;;;16.00;99.80;;;;;;6176155;23;20444;-84
2021/09/04 01:58:15;;;;;;;10.47;7.90;;;16.00;99.80;;;;;;6168709;23;20440;-84
2021/09/04 02:00:44;;;;;;;13.90;8.73;;;16.00;99.80;;;;;;6148418;23;20472;-84
2021/09/04 02:03:12;;;;;;;12.20;8.47;;;16.00;99.80;;;;;;6177502;23;20420;-85
2021/09/04 02:05:41;;;;;;;11.87;8.77;;;16.00;99.80;;;;;;6185090;23;20444;-84
2021/09/04 02:08:08;;;;;;;14.77;9.23;;;15.90;99.80;;;;;;6185506;23;20413;-84
2021/09/04 02:10:36;;;;;;;10.73;8.83;;;15.80;99.80;;;;;;6185450;23;20927;-83
2021/09/04 02:13:04;;;;;;;14.97;9.37;;;15.80;99.80;;;;;;6185003;23;20495;-84
2021/09/04 02:15:32;;;;;;;12.20;9.60;;;15.80;99.80;;;;;;6185394;23;20407;-84
2021/09/04 02:18:02;;;;;;;14.30;8.93;;;15.70;99.80;;;;;;6185266;23;20430;-83
2021/09/04 02:20:30;;;;;;;14.63;9.30;;;15.70;99.80;;;;;;6185528;23;20451;-83
2021/09/04 02:22:58;;;;;;;12.27;9.00;;;15.70;99.80;;;;;;6149232;23;20404;-83
2021/09/04 02:25:26;;;;;;;14.73;9.17;;;15.70;99.80;;;;;;6145832;23;20467;-83
2021/09/04 02:27:54;;;;;;;16.53;9.80;;;15.70;99.80;;;;;;6166061;23;20846;-83
2021/09/04 02:30:22;;;;;;;13.33;8.77;;;15.70;99.80;;;;;;6160453;23;20445;-83
2021/09/04 02:32:50;;;;;;;14.70;9.63;;;15.60;99.80;;;;;;6168192;23;20466;-84
2021/09/04 02:35:19;;;;;;;14.50;9.57;;;15.50;99.80;;;;;;6177946;23;20496;-84
2021/09/04 02:37:47;;;;;;;13.53;9.20;;;15.40;99.80;;;;;;6176646;23;20520;-85
2021/09/04 02:40:15;;;;;;;12.20;10.37;;;15.40;99.80;;;;;;6178224;23;20441;-84
2021/09/04 02:42:43;;;;;;;14.43;10.80;;;15.40;99.80;;;;;;6171465;23;20442;-83
2021/09/04 02:45:12;;;;;;;15.20;10.73;;;15.30;99.80;;;;;;6168336;23;20436;-83
2021/09/04 02:47:40;;;;;;;15.10;10.10;;;15.30;99.80;;;;;;6165748;23;20438;-83
2021/09/04 02:50:09;;;;;;;15.63;11.00;;;15.20;99.80;;;;;;6173075;23;20447;-85
2021/09/04 02:52:38;;;;;;;15.60;10.23;;;15.10;99.80;;;;;;6141889;23;20444;-82
2021/09/04 02:55:07;;;;;;;14.10;10.73;;;15.10;99.80;;;;;;6161796;23;20441;-83
2021/09/04 02:57:36;;;;;;;18.10;10.90;;;15.10;99.80;;;;;;6165542;23;20443;-83
2021/09/04 03:00:05;;;;;;;15.07;10.67;;;15.10;99.80;;;;;;6125596;23;20464;-82
2021/09/04 03:02:33;;;;;;;13.67;10.30;;;15.10;99.80;;;;;;6142187;23;20425;-84
2021/09/04 03:05:01;;;;;;;19.10;10.60;;;15.10;99.80;;;;;;6175918;23;20823;-83
2021/09/04 03:07:30;;;;;;;14.90;10.73;;;15.10;99.80;;;;;;6177268;23;20442;-84
2021/09/04 03:09:59;;;;;;;16.17;10.80;;;15.10;99.80;;;;;;6177712;23;20750;-83
2021/09/04 03:12:27;;;;;;;18.97;11.90;;;15.10;99.80;;;;;;6166524;23;20443;-83
2021/09/04 03:14:55;;;;;;;17.77;11.27;;;15.10;99.80;;;;;;6167397;23;20438;-83
2021/09/04 03:17:23;;;;;;;14.40;10.53;;;15.20;99.80;;;;;;6168166;23;20461;-83
2021/09/04 03:19:51;;;;;;;14.83;11.40;;;15.20;99.80;;;;;;6176500;23;20441;-83
2021/09/04 03:22:18;;;;;;;14.80;11.20;;;15.20;99.80;;;;;;6176661;23;20441;-83
2021/09/04 03:24:46;;;;;;;15.20;10.97;;;15.10;99.80;;;;;;6163163;23;20440;-83
2021/09/04 03:27:16;;;;;;;16.13;10.10;;;15.20;99.80;;;;;;6169970;23;20442;-84
2021/09/04 03:29:44;;;;;;;18.67;11.23;;;15.20;99.80;;;;;;6169349;23;20450;-85
2021/09/04 03:32:12;;;;;;;17.93;11.60;;;15.20;99.80;;;;;;6157381;23;20465;-84
2021/09/04 03:34:39;;;;;;;14.33;10.23;;;15.20;99.80;;;;;;6165233;23;20992;-84
2021/09/04 03:37:07;;;;;;;17.67;11.93;;;15.30;99.80;;;;;;6157260;23;20966;-84
2021/09/04 03:39:35;;;;;;;16.30;10.73;;;15.30;99.80;;;;;;6170042;23;20440;-83
2021/09/04 03:42:04;;;;;;;23.43;12.30;;;15.30;99.80;;;;;;6166927;23;20457;-83
2021/09/04 03:44:33;;;;;;;18.17;11.20;;;15.30;99.80;;;;;;6171995;23;20429;-83
2021/09/04 03:47:01;;;;;;;18.63;10.60;;;15.30;99.80;;;;;;6167194;23;20518;-83
2021/09/04 03:49:29;;;;;;;17.53;10.83;;;15.30;99.80;;;;;;6164151;23;20443;-83
2021/09/04 03:51:57;;;;;;;18.00;11.53;;;15.30;99.80;;;;;;6175233;23;20428;-83
2021/09/04 03:54:25;;;;;;;16.97;11.17;;;15.20;99.80;;;;;;6166742;23;20441;-84
2021/09/04 03:56:53;;;;;;;14.60;10.20;;;15.10;99.80;;;;;;6166028;23;20433;-83
2021/09/04 03:59:21;;;;;;;21.73;11.63;;;15.10;99.80;;;;;;6145781;23;20945;-84
2021/09/04 04:01:50;;;;;;;15.27;10.87;;;15.00;99.80;;;;;;6088380;23;20443;-84
2021/09/04 04:04:19;;;;;;;20.50;11.57;;;15.00;99.80;;;;;;6166384;23;20963;-84
2021/09/04 04:06:47;;;;;;;15.97;11.73;;;15.00;99.80;;;;;;6165609;23;20450;-83
2021/09/04 04:09:15;;;;;;;17.53;11.93;;;14.90;99.80;;;;;;6166525;23;20468;-83
2021/09/04 04:11:44;;;;;;;21.10;11.30;;;15.00;99.80;;;;;;6166225;23;20469;-83
2021/09/04 04:14:12;;;;;;;17.33;11.67;;;15.00;99.80;;;;;;6161212;23;20497;-83
2021/09/04 04:16:40;;;;;;;16.37;11.93;;;14.90;99.80;;;;;;6166072;23;20764;-83
2021/09/04 04:19:09;;;;;;;16.30;11.17;;;14.90;99.80;;;;;;6166959;23;20440;-83
2021/09/04 04:21:37;;;;;;;19.23;11.57;;;14.90;99.80;;;;;;6173366;23;20828;-83
2021/09/04 04:24:05;;;;;;;16.47;11.33;;;14.90;99.80;;;;;;6176726;23;20440;-84
2021/09/04 04:26:33;;;;;;;19.13;12.73;;;14.80;99.80;;;;;;6165691;23;20477;-82
2021/09/04 04:29:01;;;;;;;18.27;12.27;;;14.80;99.80;;;;;;6166076;23;20457;-81
2021/09/04 04:31:30;;;;;;;24.13;13.93;;;14.80;99.80;;;;;;6168967;23;21151;-81
2021/09/04 04:33:58;;;;;;;14.97;11.70;;;14.80;99.80;;;;;;6172369;23;20436;-81
2021/09/04 04:36:27;;;;;;;18.90;12.23;;;14.70;99.80;;;;;;6163049;23;20442;-82
2021/09/04 04:38:55;;;;;;;17.70;12.80;;;14.80;99.80;;;;;;6170572;23;20443;-81
2021/09/04 04:41:23;;;;;;;18.30;12.53;;;14.70;99.80;;;;;;6172207;23;21152;-81
2021/09/04 04:43:51;;;;;;;18.70;11.83;;;14.70;99.80;;;;;;6171308;23;20457;-82
2021/09/04 04:46:19;;;;;;;18.17;12.30;;;14.70;99.80;;;;;;6170911;23;20441;-81
2021/09/04 04:48:47;;;;;;;16.03;12.00;;;14.70;99.80;;;;;;6173875;23;20462;-81
2021/09/04 04:51:15;;;;;;;18.00;12.17;;;14.60;99.80;;;;;;6179678;23;20470;-81
2021/09/04 04:53:44;;;;;;;20.63;13.47;;;14.60;99.80;;;;;;6178703;23;20438;-83
2021/09/04 04:56:12;;;;;;;21.30;13.57;;;14.60;99.80;;;;;;6173607;23;20432;-81
2021/09/04 04:58:40;;;;;;;19.17;13.13;;;14.60;99.80;;;;;;6162096;23;20439;-81
2021/09/04 05:01:08;;;;;;;16.37;11.80;;;14.60;99.80;;;;;;6105922;23;20506;-82
2021/09/04 05:03:37;;;;;;;21.43;12.67;;;14.60;99.80;;;;;;6163428;23;20443;-81
2021/09/04 05:06:05;;;;;;;17.50;12.33;;;14.60;99.80;;;;;;6178171;23;20979;-81
2021/09/04 05:08:33;;;;;;;20.07;13.00;;;14.70;99.80;;;;;;6174106;23;20433;-81
2021/09/04 05:11:02;;;;;;;19.67;12.60;;;14.70;99.80;;;;;;6168584;23;20449;-82
2021/09/04 05:13:30;;;;;;;17.37;12.13;;;14.70;99.80;;;;;;6168550;23;20441;-81
2021/09/04 05:15:58;;;;;;;18.97;12.90;;;14.70;99.80;;;;;;6169548;23;20429;-81
2021/09/04 05:18:26;;;;;;;16.27;11.77;;;14.70;99.80;;;;;;6162797;23;20448;-81
2021/09/04 05:20:54;;;;;;;21.03;13.80;;;14.80;99.80;;;;;;6174225;23;20457;-82
2021/09/04 05:23:22;;;;;;;22.60;12.00;;;14.80;99.80;;;;;;6175790;23;20436;-81
2021/09/04 05:25:49;;;;;;;26.33;13.93;;;14.70;99.80;;;;;;6170234;23;20448;-81
2021/09/04 05:28:19;;;;;;;17.40;12.90;;;14.80;99.80;;;;;;6176119;23;20434;-81
2021/09/04 05:30:47;;;;;;;18.10;12.23;;;14.80;99.80;;;;;;6171906;23;20452;-81
2021/09/04 05:33:15;;;;;;;17.53;12.23;;;14.80;99.80;;;;;;6155514;23;20441;-81
2021/09/04 05:35:44;;;;;;;19.43;11.93;;;14.80;99.80;;;;;;6156044;23;20931;-81
2021/09/04 05:38:12;;;;;;;18.13;11.97;;;14.80;99.80;;;;;;6176317;23;20441;-81
2021/09/04 05:40:39;;;;;;;20.93;11.70;;;14.80;99.80;;;;;;6165221;23;20442;-81
2021/09/04 05:43:07;;;;;;;17.97;12.73;;;14.80;99.80;;;;;;6164716;23;20443;-81
2021/09/04 05:45:37;;;;;;;18.70;11.77;;;14.90;99.80;;;;;;6162356;23;20950;-81
2021/09/04 05:48:05;;;;;;;18.43;12.80;;;14.90;99.80;;;;;;6170126;23;20484;-81
2021/09/04 05:50:33;;;;;;;17.50;12.00;;;15.00;99.80;;;;;;6171805;23;20464;-82
2021/09/04 05:53:01;;;;;;;17.27;11.30;;;15.00;99.80;;;;;;6160850;23;20433;-82
2021/09/04 05:55:29;;;;;;;20.50;12.30;;;15.00;99.80;;;;;;6170446;23;20442;-82
2021/09/04 05:57:57;;;;;;;14.17;10.87;;;15.00;99.80;;;;;;6168798;23;20429;-83
2021/09/04 06:00:25;;;;;;;18.87;11.43;;;15.00;99.80;;;;;;6126563;23;20498;-83
2021/09/04 06:02:55;;;;;;;17.77;12.87;;;15.10;99.80;;;;;;6133323;23;20434;-83
2021/09/04 06:05:23;;;;;;;18.87;13.27;;;15.10;99.80;;;;;;6181481;23;20553;-84
2021/09/04 06:07:51;;;;;;;16.57;11.33;;;15.10;99.80;;;;;;6180564;23;20505;-83
2021/09/04 06:10:19;;;;;;;19.67;12.37;;;15.20;99.80;;;;;;6176329;23;20866;-84
2021/09/04 06:12:47;;;;;;;15.87;12.47;;;15.30;99.80;;;;;;6169973;23;20437;-83
2021/09/04 06:15:15;;;;;;;16.90;11.50;;;15.30;99.80;;;;;;6171553;23;20432;-84
2021/09/04 06:17:43;;;;;;;22.63;11.80;;;15.30;99.80;;;;;;6164963;23;20437;-86
2021/09/04 06:20:13;;;;;;;19.83;12.33;;;15.40;99.80;;;;;;6168787;23;20449;-85
2021/09/04 06:22:40;;;;;;;17.80;12.57;;;15.50;99.80;;;;;;6157733;23;20440;-85
2021/09/04 06:25:10;;;;;;;18.80;11.33;;;15.50;99.80;;;;;;6151302;23;20441;-85
2021/09/04 06:27:38;;;;;;;17.43;11.53;;;15.50;99.80;;;;;;6163729;23;20441;-85
2021/09/04 06:30:07;;;;;;;21.47;12.43;;;15.60;99.80;;;;;;6167910;23;20437;-84
2021/09/04 06:32:35;;;;;;;19.90;11.50;;;15.60;99.80;;;;;;6173228;23;20443;-85
2021/09/04 06:35:04;;;;;;;16.90;11.90;;;15.60;99.80;;;;;;6174286;23;20438;-84
2021/09/04 06:37:34;;;;;;;16.53;11.43;;;15.70;99.80;;;;;;6177334;23;20453;-83
2021/09/04 06:40:02;;;;;;;18.87;12.30;;;15.70;99.80;;;;;;6176915;23;20449;-82
2021/09/04 06:42:30;;;;;;;17.30;12.20;;;15.80;99.80;;;;;;6171555;23;20448;-83
2021/09/04 06:44:58;;;;;;;17.87;12.27;;;15.80;99.80;;;;;;6163570;23;21220;-83
2021/09/04 06:47:27;;;;;;;23.97;12.97;;;15.90;99.80;;;;;;6150935;23;20439;-82
2021/09/04 06:49:55;;;;;;;21.77;12.43;;;15.90;99.80;;;;;;6177753;23;20442;-85
2021/09/04 06:52:23;;;;;;;18.13;12.33;;;16.00;99.80;;;;;;6170772;23;20443;-85
2021/09/04 06:54:53;;;;;;;19.17;11.90;;;16.00;99.80;;;;;;6155438;23;20444;-85
2021/09/04 06:57:21;;;;;;;15.70;11.70;;;16.10;99.80;;;;;;6150203;23;20776;-85
2021/09/04 06:59:48;;;;;;;18.23;11.27;;;16.20;99.80;;;;;;6114111;23;21412;-85
2021/09/04 07:02:16;;;;;;;18.53;10.93;;;16.30;99.80;;;;;;6109184;23;20440;-85
2021/09/04 07:04:45;;;;;;;19.00;12.30;;;16.30;99.80;;;;;;6153427;23;20436;-85
2021/09/04 07:07:13;;;;;;;18.50;12.83;;;16.40;99.80;;;;;;6173825;23;20439;-86
2021/09/04 07:09:41;;;;;;;18.50;11.37;;;16.50;99.80;;;;;;6173276;23;20514;-85
2021/09/04 07:12:10;;;;;;;20.03;11.53;;;16.60;99.80;;;;;;6174108;23;20452;-86
2021/09/04 07:14:38;;;;;;;20.50;10.60;;;16.60;99.80;;;;;;6175591;23;20438;-85
2021/09/04 07:17:06;;;;;;;18.60;10.67;;;16.70;99.80;;;;;;6165555;23;20444;-84
2021/09/04 07:19:34;;;;;;;19.53;11.53;;;16.80;99.80;;;;;;6144501;23;20814;-86
2021/09/04 07:22:02;;;;;;;18.97;11.87;;;16.80;99.80;;;;;;6172532;23;20819;-86
2021/09/04 07:24:30;;;;;;;12.30;10.17;;;16.80;99.80;;;;;;6130090;23;20440;-87
2021/09/04 07:26:58;;;;;;;18.40;10.30;;;16.90;99.80;;;;;;6117630;23;20461;-86
2021/09/04 07:29:28;;;;;;;19.80;11.77;;;17.00;99.80;;;;;;6130877;23;20439;-85
2021/09/04 07:31:56;;;;;;;19.80;10.40;;;17.00;99.80;;;;;;6130864;23;20487;-85
2021/09/04 07:34:24;;;;;;;17.77;10.50;;;17.10;99.80;;;;;;6127726;23;20444;-86
2021/09/04 07:36:52;;;;;;;16.40;11.00;;;17.20;99.80;;;;;;6121097;23;20472;-86
2021/09/04 07:39:21;;;;;;;14.63;10.17;;;17.30;99.80;;;;;;6110306;23;20446;-86
2021/09/04 07:41:49;;;;;;;14.10;10.40;;;17.40;99.80;;;;;;6062167;23;20449;-86
2021/09/04 07:44:17;;;;;;;14.10;10.47;;;17.50;99.80;;;;;;6103037;23;20471;-86
2021/09/04 07:46:51;;;;;;;16.00;11.30;;;17.60;99.80;;;;;;6117678;23;20461;-86
2021/09/04 07:49:19;;;;;;;14.67;10.30;;;17.80;99.80;;;;;;6144224;23;20445;-87
2021/09/04 07:51:47;;;;;;;15.37;10.57;;;17.80;99.80;;;;;;6173921;23;20470;-86
2021/09/04 07:54:16;;;;;;;15.37;10.87;;;17.90;99.80;;;;;;6177069;23;20451;-86
2021/09/04 07:56:44;;;;;;;16.00;10.70;;;18.00;99.80;;;;;;6112487;23;20516;-86
2021/09/04 07:59:14;;;;;;;14.50;10.17;;;18.10;99.80;;;;;;6126696;23;20506;-88
2021/09/04 08:01:42;;;;;;;15.40;10.67;;;18.20;99.80;;;;;;6117707;23;20444;-86
2021/09/04 08:04:15;;;;;;;18.13;11.10;;;18.30;99.80;;;;;;6130182;23;20516;-85
2021/09/04 08:06:44;;;;;;;12.43;9.83;;;18.50;99.80;;;;;;6106251;23;20972;-85
2021/09/04 08:09:14;;;;;;;19.30;11.20;;;18.50;99.80;;;;;;6117150;23;20446;-85
2021/09/04 08:11:42;;;;;;;15.80;10.10;;;18.60;99.80;;;;;;6132156;23;20437;-85
2021/09/04 08:14:10;;;;;;;12.97;10.40;;;18.70;99.80;;;;;;6123860;23;20972;-86
2021/09/04 08:16:38;;;;;;;14.20;9.70;;;18.80;99.80;;;;;;6151629;23;20500;-85
2021/09/04 08:19:06;;;;;;;14.53;10.33;;;18.90;99.80;;;;;;6159326;23;20945;-85
2021/09/04 08:21:39;;;;;;;13.83;9.60;;;18.90;99.80;;;;;;6173536;23;20453;-86
2021/09/04 08:24:08;;;;;;;13.50;10.00;;;19.00;99.80;;;;;;6172203;23;20841;-86
2021/09/04 08:26:36;;;;;;;12.53;9.40;;;19.10;99.80;;;;;;6155800;23;20465;-86
2021/09/04 08:29:04;;;;;;;15.20;10.77;;;19.30;99.80;;;;;;6086361;23;20787;-85
2021/09/04 08:31:33;;;;;;;14.93;10.17;;;19.40;99.80;;;;;;6099577;23;20445;-86
2021/09/04 08:34:01;;;;;;;12.67;8.93;;;19.50;99.80;;;;;;6152663;23;20914;-86
2021/09/04 08:36:29;;;;;;;12.00;10.23;;;19.60;99.80;;;;;;6174225;23;20776;-86
2021/09/04 08:38:59;;;;;;;13.20;9.53;;;19.70;99.80;;;;;;6111065;23;20927;-85
2021/09/04 08:41:30;;;;;;;11.83;9.27;;;19.80;99.80;;;;;;6125253;23;20494;-86
2021/09/04 08:44:01;;;;;;;12.57;9.03;;;19.80;99.80;;;;;;6129495;23;20436;-86
2021/09/04 08:46:33;;;;;;;15.80;9.93;;;20.00;99.80;;;;;;6131460;23;20443;-85
2021/09/04 08:49:02;;;;;;;12.40;8.87;;;20.10;99.80;;;;;;6090180;23;20437;-85
2021/09/04 08:51:31;;;;;;;12.63;9.50;;;20.20;99.80;;;;;;6168464;23;20457;-85
2021/09/04 08:54:02;;;;;;;14.43;9.83;;;20.40;99.80;;;;;;6172267;23;20916;-85
2021/09/04 08:56:30;;;;;;;18.17;9.27;;;20.50;99.80;;;;;;6171552;23;20467;-85
2021/09/04 08:58:58;;;;;;;11.90;8.80;;;20.60;99.80;;;;;;6126059;23;20473;-86
2021/09/04 09:01:28;;;;;;;13.60;8.90;;;20.80;99.80;;;;;;6121674;23;20449;-85
2021/09/04 09:04:03;;;;;;;12.40;8.10;;;20.90;99.80;;;;;;6131827;23;20442;-85
2021/09/04 09:06:36;;;;;;;9.47;8.10;;;21.00;99.80;;;;;;6161013;23;20429;-85
2021/09/04 09:09:22;;;;;;;11.07;7.70;;;21.20;99.80;;;;;;6144186;23;20442;-86
2021/09/04 09:11:51;;;;;;;11.07;8.03;;;21.40;99.80;;;;;;6128899;23;20529;-86
2021/09/04 09:14:20;;;;;;;10.17;8.00;;;21.40;99.80;;;;;;6107942;23;20440;-86
2021/09/04 09:16:53;;;;;;;14.37;9.10;;;21.50;99.80;;;;;;6103399;23;21324;-86
2021/09/04 09:19:23;;;;;;;9.93;7.50;;;21.60;99.80;;;;;;6109382;23;20480;-86
2021/09/04 09:21:54;;;;;;;10.33;8.30;;;21.80;99.80;;;;;;6130569;23;20917;-85
2021/09/04 09:24:26;;;;;;;12.70;7.17;;;21.90;99.80;;;;;;6116686;23;20446;-86
2021/09/04 09:26:56;;;;;;;9.10;7.00;;;22.10;99.80;;;;;;6118506;23;20434;-86
2021/09/04 09:29:26;;;;;;;11.60;7.20;;;22.30;99.80;;;;;;6103349;23;20469;-86
2021/09/04 09:32:01;;;;;;;9.23;6.80;;;22.40;99.80;;;;;;6131208;23;20989;-85
2021/09/04 09:34:30;;;;;;;9.47;7.83;;;22.50;99.80;;;;;;6145655;23;20985;-85
2021/09/04 09:36:59;;;;;;;9.20;6.70;;;22.70;99.80;;;;;;6173233;23;20774;-85
2021/09/04 09:39:32;;;;;;;8.70;6.87;;;22.80;99.80;;;;;;6150995;23;20867;-85
2021/09/04 09:42:01;;;;;;;11.90;7.23;;;23.00;99.80;;;;;;6093771;23;20434;-86
2021/09/04 09:44:31;;;;;;;10.97;7.17;;;23.10;99.80;;;;;;6124566;23;20497;-86
2021/09/04 09:47:01;;;;;;;9.70;7.33;;;23.20;98.00;;;;;;6126032;23;20445;-85
2021/09/04 09:49:32;;;;;;;8.70;7.27;;;23.20;97.90;;;;;;6171601;23;20980;-86
2021/09/04 09:52:02;;;;;;;13.37;8.10;;;23.10;97.20;;;;;;6122825;23;20481;-84
2021/09/04 09:54:32;;;;;;;8.93;6.53;;;23.10;98.10;;;;;;6104153;23;20438;-84
2021/09/04 09:57:02;;;;;;;8.37;6.67;;;23.20;99.10;;;;;;6123285;23;20441;-84
2021/09/04 09:59:31;;;;;;;10.30;6.77;;;23.30;96.90;;;;;;6123641;23;21005;-84
2021/09/04 10:02:00;;;;;;;8.83;6.90;;;23.40;96.10;;;;;;6102134;23;21014;-85
2021/09/04 10:04:32;;;;;;;7.57;6.33;;;23.50;96.50;;;;;;6129282;23;20448;-87
2021/09/04 10:07:03;;;;;;;6.80;6.17;;;23.60;96.40;;;;;;6140886;23;20444;-85
2021/09/04 10:09:32;;;;;;;8.30;6.80;;;23.80;95.70;;;;;;6145435;23;20437;-85
2021/09/04 10:12:04;;;;;;;7.27;6.23;;;23.90;94.90;;;;;;6130698;23;20422;-86
2021/09/04 10:14:32;;;;;;;8.37;6.07;;;24.00;93.80;;;;;;6101522;23;20465;-86
2021/09/04 10:17:04;;;;;;;8.90;5.80;;;24.20;94.30;;;;;;6116376;23;20445;-87
2021/09/04 10:19:34;;;;;;;6.90;5.83;;;24.30;93.80;;;;;;6122070;23;20438;-86
2021/09/04 10:22:05;;;;;;;8.17;6.33;;;24.40;91.90;;;;;;6132818;23;20445;-86
2021/09/04 10:24:51;;;;;;;6.77;6.10;;;24.50;92.60;;;;;;6115820;23;20442;-86
2021/09/04 10:27:34;;;;;;;8.13;6.37;;;24.60;91.80;;;;;;6117621;23;20468;-85
2021/09/04 10:30:27;;;;;;;10.63;6.00;;;24.70;90.80;;;;;;6117208;23;20517;-85
2021/09/04 10:33:00;;;;;;;8.67;5.33;;;24.80;92.10;;;;;;6118346;23;20433;-85
2021/09/04 10:35:52;;;;;;;6.30;5.70;;;25.00;92.10;;;;;;6147766;23;20438;-85
2021/09/04 10:38:27;;;;;;;6.50;5.67;;;25.20;91.60;;;;;;6149131;23;20450;-85
2021/09/04 10:41:21;;;;;;;6.40;5.43;;;25.30;91.00;;;;;;6147357;23;20441;-85
2021/09/04 10:43:55;;;;;;;11.00;6.63;;;25.50;89.40;;;;;;6124048;23;20918;-86
2021/09/04 10:46:24;;;;;;;6.20;5.60;;;25.50;89.40;;;;;;6119187;23;20437;-84
2021/09/04 10:48:59;;;;;;;11.83;6.30;;;25.60;88.10;;;;;;6128353;23;20817;-85
2021/09/04 10:51:52;;;;;;;6.33;5.73;;;25.90;90.40;;;;;;6167745;23;20833;-85
2021/09/04 10:54:54;;;;;;;8.17;5.90;;;26.00;89.60;;;;;;6130976;23;20442;-85
2021/09/04 10:57:24;;;;;;;6.90;6.20;;;26.20;90.50;;;;;;6119163;23;20437;-82
2021/09/04 10:59:59;;;;;;;6.70;5.70;;;26.30;86.40;;;;;;6118125;23;20442;-82
2021/09/04 11:02:43;;;;;;;6.13;5.47;;;26.30;86.90;;;;;;6105961;23;20488;-82
2021/09/04 11:05:48;;;;;;;13.03;6.20;;;26.30;87.00;;;;;;6120786;23;20544;-84
2021/09/04 11:08:35;;;;;;;9.20;5.40;;;26.30;86.90;;;;;;6118168;23;21109;-83
2021/09/04 11:11:35;;;;;;;8.33;6.03;;;26.50;85.80;;;;;;6104749;23;20548;-83
2021/09/04 11:14:18;;;;;;;6.43;4.97;;;26.50;86.60;;;;;;6071245;23;20433;-82
2021/09/04 11:16:48;;;;;;;10.70;5.83;;;26.60;83.20;;;;;;6114021;23;20437;-82
2021/09/04 11:19:21;;;;;;;8.37;5.40;;;26.70;84.70;;;;;;6153436;23;20545;-83
2021/09/04 11:21:52;;;;;;;6.57;5.87;;;26.90;83.00;;;;;;6163021;23;20449;-83
2021/09/04 11:24:26;;;;;;;5.63;5.13;;;27.00;81.60;;;;;;6173420;23;20433;-83
2021/09/04 11:27:03;;;;;;;4.90;4.40;;;27.30;82.90;;;;;;6105432;23;20433;-82
2021/09/04 11:29:42;;;;;;;5.57;4.83;;;27.60;78.60;;;;;;6117478;23;20448;-83
2021/09/04 11:32:11;;;;;;;7.13;5.27;;;27.90;80.30;;;;;;6118453;23;20438;-82
2021/09/04 11:34:46;;;;;;;7.37;5.60;;;28.10;77.30;;;;;;6128031;23;20476;-87
2021/09/04 11:37:16;;;;;;;5.47;4.97;;;28.20;77.80;;;;;;6119989;23;20512;-87
2021/09/04 11:39:45;;;;;;;5.33;4.80;;;28.20;77.80;;;;;;6166883;23;20443;-86
2021/09/04 11:42:16;;;;;;;8.73;5.23;;;;;;;;;;6156646;23;20437;-85
2021/09/04 11:44:49;;;;;;;5.67;4.80;;;;;;;;;;6147212;23;20441;-85
2021/09/04 11:47:18;;;;;;;10.23;4.90;;;;;;;;;;6163838;23;20498;-88
2021/09/04 11:49:47;;;;;;;4.60;4.17;;;;;;;;;;6177348;23;20480;-87
2021/09/04 11:52:23;;;;;;;5.00;4.47;;;;;;;;;;6174623;23;20440;-87
2021/09/04 11:54:52;;;;;;;5.90;4.60;;;;;;;;;;6172699;23;20436;-86
2021/09/04 11:57:24;;;;;;;5.30;4.77;;;;;;;;;;6164818;23;20433;-85
2021/09/04 12:00:05;;;;;;;5.27;4.77;;;;;;;;;;6128686;23;20473;-85
2021/09/04 12:02:35;;;;;;;5.10;4.57;;;;;;;;;;6130617;23;20539;-85
2021/09/04 12:05:07;;;;;;;6.57;6.03;;;;;;;;;;6173769;23;20456;-85
2021/09/04 12:07:37;;;;;;;7.23;6.50;;;;;;;;;;6157180;23;20429;-85
2021/09/04 12:10:09;;;;;;;8.17;6.97;;;;;;;;;;6098127;23;20438;-84
2021/09/04 12:12:41;;;;;;;6.50;5.90;;;;;;;;;;6129022;23;21034;-83
2021/09/04 12:15:15;;;;;;;9.47;7.53;;;;;;;;;;6149106;23;20436;-83
2021/09/04 12:17:50;;;;;;;7.97;7.10;;;;;;;;;;6167250;23;20456;-84
2021/09/04 12:20:21;;;;;;;10.27;8.27;;;;;;;;;;6173567;23;20498;-83
2021/09/04 12:22:49;;;;;;;14.70;8.90;;;;;;;;;;6176455;23;20447;-84
2021/09/04 12:25:34;;;;;;;20.90;12.33;;;45.00;42.50;;;;;;6173347;23;20438;-83
2021/09/04 12:28:08;;;;;;;16.00;10.27;;;45.50;43.70;;;;;;6168521;23;20464;-84
2021/09/04 12:30:58;;;;;;;15.83;9.87;;;46.10;42.80;;;;;;6120573;23;20822;-84
2021/09/04 12:33:26;;;;;;;28.07;19.20;;;;;;;;;;6151023;23;20438;-84
2021/09/04 12:35:57;;;;;;;29.17;20.07;;;46.60;40.50;;;;;;6156807;23;20436;-84
2021/09/04 12:38:28;;;;;;;36.87;23.47;;;46.60;40.80;;;;;;6163129;23;20522;-84
2021/09/04 12:41:10;;;;;;;35.33;22.80;;;46.60;40.10;;;;;;6166036;23;20958;-84
2021/09/04 12:44:05;;;;;;;15.10;10.47;;;46.60;40.60;;;;;;6158908;23;20500;-84
2021/09/04 12:46:44;;;;;;;15.13;9.63;;;46.30;40.70;;;;;;6097556;23;20758;-83
2021/09/04 12:49:21;;;;;;;14.70;9.87;;;46.10;39.50;;;;;;6168252;23;20779;-83
2021/09/04 12:51:59;;;;;;;16.43;8.77;;;44.70;42.30;;;;;;6155606;23;21008;-83
2021/09/04 12:54:35;;;;;;;12.10;7.67;;;42.30;46.30;;;;;;6160946;23;20432;-83
2021/09/04 12:57:15;;;;;;;5.33;4.93;;;40.40;47.00;;;;;;6127542;23;20443;-84